sensor_id;sensor_type;location;lat;lon;timestamp;P1;durP1;ratioP1;P2;durP2;ratioP2
30380;SDS011;17169;50.966;11.038;2022-08-24T00:02:52;7.57;;;3.03;;
30380;SDS011;17169;50.966;11.038;2022-08-24T00:05:54;6.65;;;3.75;;
30380;SDS011;17169;50.966;11.038;2022-08-24T00:08:57;7.65;;;2.80;;
30380;SDS011;17169;50.966;11.038;2022-08-24T00:12:00;6.00;;;2.47;;
30380;SDS011;17169;50.966;11.038;2022-08-24T00:15:02;6.10;;;2.97;;
30380;SDS011;17169;50.966;11.038;2022-08-24T00:18:07;6.18;;;2.72;;
30380;SDS011;17169;50.966;11.038;2022-08-24T00:21:10;5.55;;;2.80;;
30380;SDS011;17169;50.966;11.038;2022-08-24T00:24:13;8.88;;;2.97;;
30380;SDS011;17169;50.966;11.038;2022-08-24T00:27:15;7.13;;;2.97;;
30380;SDS011;17169;50.966;11.038;2022-08-24T00:30:18;8.73;;;3.05;;
30380;SDS011;17169;50.966;11.038;2022-08-24T00:33:22;8.98;;;2.88;;
30380;SDS011;17169;50.966;11.038;2022-08-24T00:36:26;8.03;;;3.23;;
30380;SDS011;17169;50.966;11.038;2022-08-24T00:39:28;4.55;;;3.13;;
30380;SDS011;17169;50.966;11.038;2022-08-24T00:42:30;6.70;;;2.88;;
30380;SDS011;17169;50.966;11.038;2022-08-24T00:45:35;6.65;;;3.17;;
30380;SDS011;17169;50.966;11.038;2022-08-24T00:48:44;5.18;;;3.10;;
30380;SDS011;17169;50.966;11.038;2022-08-24T00:51:52;6.15;;;3.20;;
30380;SDS011;17169;50.966;11.038;2022-08-24T00:54:59;9.82;;;3.28;;
30380;SDS011;17169;50.966;11.038;2022-08-24T00:58:16;4.53;;;2.97;;
30380;SDS011;17169;50.966;11.038;2022-08-24T01:01:22;11.77;;;3.28;;
30380;SDS011;17169;50.966;11.038;2022-08-24T01:04:27;5.45;;;3.20;;
30380;SDS011;17169;50.966;11.038;2022-08-24T01:07:34;6.00;;;2.97;;
30380;SDS011;17169;50.966;11.038;2022-08-24T01:10:38;4.50;;;3.08;;
30380;SDS011;17169;50.966;11.038;2022-08-24T01:13:46;5.57;;;3.25;;
30380;SDS011;17169;50.966;11.038;2022-08-24T01:16:50;8.27;;;3.33;;
30380;SDS011;17169;50.966;11.038;2022-08-24T01:20:12;7.68;;;3.20;;
30380;SDS011;17169;50.966;11.038;2022-08-24T01:23:23;6.22;;;3.40;;
30380;SDS011;17169;50.966;11.038;2022-08-24T01:26:36;7.97;;;3.10;;
30380;SDS011;17169;50.966;11.038;2022-08-24T01:32:51;7.50;;;3.30;;
30380;SDS011;17169;50.966;11.038;2022-08-24T01:35:56;7.25;;;3.03;;
30380;SDS011;17169;50.966;11.038;2022-08-24T01:39:05;8.57;;;3.38;;
30380;SDS011;17169;50.966;11.038;2022-08-24T01:42:11;7.05;;;3.20;;
30380;SDS011;17169;50.966;11.038;2022-08-24T01:45:14;6.88;;;3.30;;
30380;SDS011;17169;50.966;11.038;2022-08-24T01:48:17;6.47;;;3.20;;
30380;SDS011;17169;50.966;11.038;2022-08-24T01:51:19;6.97;;;3.03;;
30380;SDS011;17169;50.966;11.038;2022-08-24T01:54:23;6.72;;;3.63;;
30380;SDS011;17169;50.966;11.038;2022-08-24T01:57:26;7.80;;;3.50;;
30380;SDS011;17169;50.966;11.038;2022-08-24T02:00:28;5.32;;;3.30;;
30380;SDS011;17169;50.966;11.038;2022-08-24T02:03:31;7.05;;;3.72;;
30380;SDS011;17169;50.966;11.038;2022-08-24T02:06:34;5.43;;;3.55;;
30380;SDS011;17169;50.966;11.038;2022-08-24T02:09:38;7.72;;;3.70;;
30380;SDS011;17169;50.966;11.038;2022-08-24T02:12:41;6.03;;;3.13;;
30380;SDS011;17169;50.966;11.038;2022-08-24T02:15:46;7.72;;;3.90;;
30380;SDS011;17169;50.966;11.038;2022-08-24T02:18:49;8.98;;;3.92;;
30380;SDS011;17169;50.966;11.038;2022-08-24T02:21:51;7.50;;;4.03;;
30380;SDS011;17169;50.966;11.038;2022-08-24T02:24:55;6.07;;;3.53;;
30380;SDS011;17169;50.966;11.038;2022-08-24T02:27:57;5.68;;;3.55;;
30380;SDS011;17169;50.966;11.038;2022-08-24T02:31:01;9.88;;;3.53;;
30380;SDS011;17169;50.966;11.038;2022-08-24T02:34:05;6.47;;;3.80;;
30380;SDS011;17169;50.966;11.038;2022-08-24T02:37:08;5.70;;;3.67;;
30380;SDS011;17169;50.966;11.038;2022-08-24T02:40:12;9.65;;;4.20;;
30380;SDS011;17169;50.966;11.038;2022-08-24T02:43:15;6.82;;;3.90;;
30380;SDS011;17169;50.966;11.038;2022-08-24T02:46:17;5.95;;;3.47;;
30380;SDS011;17169;50.966;11.038;2022-08-24T02:49:20;10.57;;;4.03;;
30380;SDS011;17169;50.966;11.038;2022-08-24T02:52:23;9.95;;;4.55;;
30380;SDS011;17169;50.966;11.038;2022-08-24T02:55:27;8.35;;;3.80;;
30380;SDS011;17169;50.966;11.038;2022-08-24T02:58:29;9.57;;;3.97;;
30380;SDS011;17169;50.966;11.038;2022-08-24T03:01:33;8.63;;;4.53;;
30380;SDS011;17169;50.966;11.038;2022-08-24T03:04:35;7.65;;;4.07;;
30380;SDS011;17169;50.966;11.038;2022-08-24T03:07:38;9.43;;;4.07;;
30380;SDS011;17169;50.966;11.038;2022-08-24T03:10:42;7.45;;;3.75;;
30380;SDS011;17169;50.966;11.038;2022-08-24T03:13:44;12.43;;;4.45;;
30380;SDS011;17169;50.966;11.038;2022-08-24T03:16:47;9.38;;;4.47;;
30380;SDS011;17169;50.966;11.038;2022-08-24T03:19:49;6.03;;;3.88;;
30380;SDS011;17169;50.966;11.038;2022-08-24T03:22:52;7.28;;;3.88;;
30380;SDS011;17169;50.966;11.038;2022-08-24T03:25:56;8.32;;;4.25;;
30380;SDS011;17169;50.966;11.038;2022-08-24T03:28:58;10.90;;;4.22;;
30380;SDS011;17169;50.966;11.038;2022-08-24T03:32:01;7.05;;;4.38;;
30380;SDS011;17169;50.966;11.038;2022-08-24T03:35:04;6.90;;;3.92;;
30380;SDS011;17169;50.966;11.038;2022-08-24T03:38:08;8.18;;;4.55;;
30380;SDS011;17169;50.966;11.038;2022-08-24T03:41:12;9.98;;;3.95;;
30380;SDS011;17169;50.966;11.038;2022-08-24T03:44:15;5.28;;;3.45;;
30380;SDS011;17169;50.966;11.038;2022-08-24T03:47:17;12.45;;;3.90;;
30380;SDS011;17169;50.966;11.038;2022-08-24T03:50:22;6.30;;;3.35;;
30380;SDS011;17169;50.966;11.038;2022-08-24T03:53:26;10.55;;;4.35;;
30380;SDS011;17169;50.966;11.038;2022-08-24T03:56:30;7.78;;;3.70;;
30380;SDS011;17169;50.966;11.038;2022-08-24T03:59:32;4.90;;;3.30;;
30380;SDS011;17169;50.966;11.038;2022-08-24T04:02:35;10.70;;;3.90;;
30380;SDS011;17169;50.966;11.038;2022-08-24T04:05:38;5.95;;;3.70;;
30380;SDS011;17169;50.966;11.038;2022-08-24T04:08:42;8.05;;;4.20;;
30380;SDS011;17169;50.966;11.038;2022-08-24T04:11:46;9.77;;;3.40;;
30380;SDS011;17169;50.966;11.038;2022-08-24T04:14:49;7.00;;;3.92;;
30380;SDS011;17169;50.966;11.038;2022-08-24T04:17:53;6.00;;;3.92;;
30380;SDS011;17169;50.966;11.038;2022-08-24T04:20:55;10.57;;;4.20;;
30380;SDS011;17169;50.966;11.038;2022-08-24T04:23:58;9.73;;;4.00;;
30380;SDS011;17169;50.966;11.038;2022-08-24T04:27:02;12.88;;;4.82;;
30380;SDS011;17169;50.966;11.038;2022-08-24T04:30:06;10.05;;;4.30;;
30380;SDS011;17169;50.966;11.038;2022-08-24T04:33:10;12.90;;;3.90;;
30380;SDS011;17169;50.966;11.038;2022-08-24T04:36:13;7.97;;;4.53;;
30380;SDS011;17169;50.966;11.038;2022-08-24T04:39:17;10.80;;;4.07;;
30380;SDS011;17169;50.966;11.038;2022-08-24T04:42:21;6.63;;;3.95;;
30380;SDS011;17169;50.966;11.038;2022-08-24T04:45:23;7.90;;;4.20;;
30380;SDS011;17169;50.966;11.038;2022-08-24T04:48:26;7.53;;;4.05;;
30380;SDS011;17169;50.966;11.038;2022-08-24T04:51:29;7.97;;;4.28;;
30380;SDS011;17169;50.966;11.038;2022-08-24T04:54:31;7.82;;;4.38;;
30380;SDS011;17169;50.966;11.038;2022-08-24T04:57:35;13.00;;;4.45;;
30380;SDS011;17169;50.966;11.038;2022-08-24T05:00:37;9.05;;;4.85;;
30380;SDS011;17169;50.966;11.038;2022-08-24T05:03:42;10.05;;;4.75;;
30380;SDS011;17169;50.966;11.038;2022-08-24T05:06:47;11.02;;;4.43;;
30380;SDS011;17169;50.966;11.038;2022-08-24T05:09:50;9.07;;;5.68;;
30380;SDS011;17169;50.966;11.038;2022-08-24T05:12:54;13.50;;;4.57;;
30380;SDS011;17169;50.966;11.038;2022-08-24T05:15:56;8.93;;;4.65;;
30380;SDS011;17169;50.966;11.038;2022-08-24T05:18:58;8.32;;;5.25;;
30380;SDS011;17169;50.966;11.038;2022-08-24T05:22:01;8.75;;;4.47;;
30380;SDS011;17169;50.966;11.038;2022-08-24T05:25:04;8.98;;;4.47;;
30380;SDS011;17169;50.966;11.038;2022-08-24T05:28:08;9.45;;;4.50;;
30380;SDS011;17169;50.966;11.038;2022-08-24T05:31:12;6.05;;;3.90;;
30380;SDS011;17169;50.966;11.038;2022-08-24T05:34:16;9.75;;;4.57;;
30380;SDS011;17169;50.966;11.038;2022-08-24T05:37:19;11.43;;;4.30;;
30380;SDS011;17169;50.966;11.038;2022-08-24T05:40:21;8.05;;;4.35;;
30380;SDS011;17169;50.966;11.038;2022-08-24T05:43:26;8.80;;;4.55;;
30380;SDS011;17169;50.966;11.038;2022-08-24T05:46:29;9.38;;;4.45;;
30380;SDS011;17169;50.966;11.038;2022-08-24T05:49:32;8.15;;;4.38;;
30380;SDS011;17169;50.966;11.038;2022-08-24T05:52:34;7.82;;;4.47;;
30380;SDS011;17169;50.966;11.038;2022-08-24T05:55:37;11.15;;;4.60;;
30380;SDS011;17169;50.966;11.038;2022-08-24T05:58:41;6.13;;;3.72;;
30380;SDS011;17169;50.966;11.038;2022-08-24T06:01:44;11.67;;;4.63;;
30380;SDS011;17169;50.966;11.038;2022-08-24T06:04:47;11.63;;;4.45;;
30380;SDS011;17169;50.966;11.038;2022-08-24T06:07:50;10.35;;;5.47;;
30380;SDS011;17169;50.966;11.038;2022-08-24T06:10:52;10.27;;;4.72;;
30380;SDS011;17169;50.966;11.038;2022-08-24T06:13:57;7.93;;;4.10;;
30380;SDS011;17169;50.966;11.038;2022-08-24T06:17:02;6.50;;;4.40;;
30380;SDS011;17169;50.966;11.038;2022-08-24T06:20:07;9.90;;;4.53;;
30380;SDS011;17169;50.966;11.038;2022-08-24T06:23:10;14.90;;;4.38;;
30380;SDS011;17169;50.966;11.038;2022-08-24T06:26:13;10.25;;;4.72;;
30380;SDS011;17169;50.966;11.038;2022-08-24T06:29:35;12.63;;;3.92;;
30380;SDS011;17169;50.966;11.038;2022-08-24T06:32:37;14.18;;;4.57;;
30380;SDS011;17169;50.966;11.038;2022-08-24T06:35:43;10.75;;;4.13;;
30380;SDS011;17169;50.966;11.038;2022-08-24T06:38:47;11.63;;;4.50;;
30380;SDS011;17169;50.966;11.038;2022-08-24T06:41:49;11.90;;;4.10;;
30380;SDS011;17169;50.966;11.038;2022-08-24T06:44:53;10.95;;;4.43;;
30380;SDS011;17169;50.966;11.038;2022-08-24T06:47:56;13.73;;;4.85;;
30380;SDS011;17169;50.966;11.038;2022-08-24T06:50:58;14.95;;;4.45;;
30380;SDS011;17169;50.966;11.038;2022-08-24T06:54:01;9.32;;;4.47;;
30380;SDS011;17169;50.966;11.038;2022-08-24T06:57:03;19.30;;;4.20;;
30380;SDS011;17169;50.966;11.038;2022-08-24T07:00:08;13.70;;;4.15;;
30380;SDS011;17169;50.966;11.038;2022-08-24T07:06:14;11.98;;;4.13;;
30380;SDS011;17169;50.966;11.038;2022-08-24T07:09:17;10.50;;;4.05;;
30380;SDS011;17169;50.966;11.038;2022-08-24T07:12:20;9.02;;;3.78;;
30380;SDS011;17169;50.966;11.038;2022-08-24T07:15:24;5.80;;;3.63;;
30380;SDS011;17169;50.966;11.038;2022-08-24T07:18:27;10.00;;;4.38;;
30380;SDS011;17169;50.966;11.038;2022-08-24T07:21:30;11.45;;;3.80;;
30380;SDS011;17169;50.966;11.038;2022-08-24T07:24:32;8.55;;;4.28;;
30380;SDS011;17169;50.966;11.038;2022-08-24T07:27:35;9.85;;;3.42;;
30380;SDS011;17169;50.966;11.038;2022-08-24T07:30:40;6.72;;;3.70;;
30380;SDS011;17169;50.966;11.038;2022-08-24T07:33:43;7.07;;;3.25;;
30380;SDS011;17169;50.966;11.038;2022-08-24T07:36:46;9.55;;;3.92;;
30380;SDS011;17169;50.966;11.038;2022-08-24T07:39:50;8.27;;;3.28;;
30380;SDS011;17169;50.966;11.038;2022-08-24T07:42:53;10.00;;;3.42;;
30380;SDS011;17169;50.966;11.038;2022-08-24T07:45:58;11.07;;;3.63;;
30380;SDS011;17169;50.966;11.038;2022-08-24T07:49:01;7.85;;;2.92;;
30380;SDS011;17169;50.966;11.038;2022-08-24T07:52:03;8.30;;;2.92;;
30380;SDS011;17169;50.966;11.038;2022-08-24T07:55:06;8.30;;;2.78;;
30380;SDS011;17169;50.966;11.038;2022-08-24T07:58:11;7.13;;;3.10;;
30380;SDS011;17169;50.966;11.038;2022-08-24T08:01:14;10.20;;;2.83;;
30380;SDS011;17169;50.966;11.038;2022-08-24T08:04:19;6.13;;;2.65;;
30380;SDS011;17169;50.966;11.038;2022-08-24T08:07:24;6.03;;;2.70;;
30380;SDS011;17169;50.966;11.038;2022-08-24T08:10:27;6.32;;;2.53;;
30380;SDS011;17169;50.966;11.038;2022-08-24T08:13:30;13.52;;;2.70;;
30380;SDS011;17169;50.966;11.038;2022-08-24T08:16:34;7.07;;;2.85;;
30380;SDS011;17169;50.966;11.038;2022-08-24T08:19:38;5.57;;;2.72;;
30380;SDS011;17169;50.966;11.038;2022-08-24T08:22:42;11.65;;;3.00;;
30380;SDS011;17169;50.966;11.038;2022-08-24T08:26:02;9.63;;;3.28;;
30380;SDS011;17169;50.966;11.038;2022-08-24T08:29:06;7.50;;;2.60;;
30380;SDS011;17169;50.966;11.038;2022-08-24T08:32:11;10.00;;;3.42;;
30380;SDS011;17169;50.966;11.038;2022-08-24T08:35:16;12.15;;;3.60;;
30380;SDS011;17169;50.966;11.038;2022-08-24T08:38:18;7.20;;;3.28;;
30380;SDS011;17169;50.966;11.038;2022-08-24T08:41:31;6.40;;;2.90;;
30380;SDS011;17169;50.966;11.038;2022-08-24T08:45:09;12.88;;;3.00;;
30380;SDS011;17169;50.966;11.038;2022-08-24T08:48:26;8.48;;;2.90;;
30380;SDS011;17169;50.966;11.038;2022-08-24T08:52:06;9.73;;;2.80;;
30380;SDS011;17169;50.966;11.038;2022-08-24T08:55:31;9.13;;;2.95;;
30380;SDS011;17169;50.966;11.038;2022-08-24T08:58:42;9.50;;;3.38;;
30380;SDS011;17169;50.966;11.038;2022-08-24T09:01:54;10.07;;;2.80;;
30380;SDS011;17169;50.966;11.038;2022-08-24T09:08:50;8.00;;;2.55;;
30380;SDS011;17169;50.966;11.038;2022-08-24T09:12:11;8.07;;;2.75;;
30380;SDS011;17169;50.966;11.038;2022-08-24T09:15:28;7.75;;;3.17;;
30380;SDS011;17169;50.966;11.038;2022-08-24T09:18:43;8.27;;;3.08;;
30380;SDS011;17169;50.966;11.038;2022-08-24T09:21:59;13.40;;;3.47;;
30380;SDS011;17169;50.966;11.038;2022-08-24T09:25:25;9.05;;;3.60;;
30380;SDS011;17169;50.966;11.038;2022-08-24T09:28:35;5.90;;;2.45;;
30380;SDS011;17169;50.966;11.038;2022-08-24T09:31:48;11.48;;;2.70;;
30380;SDS011;17169;50.966;11.038;2022-08-24T09:34:59;7.57;;;2.97;;
30380;SDS011;17169;50.966;11.038;2022-08-24T09:38:06;7.57;;;2.78;;
30380;SDS011;17169;50.966;11.038;2022-08-24T09:41:31;9.05;;;2.88;;
30380;SDS011;17169;50.966;11.038;2022-08-24T09:45:12;6.32;;;2.60;;
30380;SDS011;17169;50.966;11.038;2022-08-24T09:48:42;7.13;;;2.72;;
30380;SDS011;17169;50.966;11.038;2022-08-24T09:59:49;13.32;;;3.00;;
30380;SDS011;17169;50.966;11.038;2022-08-24T10:06:46;8.90;;;2.63;;
30380;SDS011;17169;50.966;11.038;2022-08-24T10:10:02;7.00;;;2.60;;
30380;SDS011;17169;50.966;11.038;2022-08-24T10:13:24;8.80;;;2.47;;
30380;SDS011;17169;50.966;11.038;2022-08-24T10:16:36;6.22;;;3.10;;
30380;SDS011;17169;50.966;11.038;2022-08-24T10:19:47;10.50;;;2.47;;
30380;SDS011;17169;50.966;11.038;2022-08-24T10:26:11;8.27;;;2.92;;
30380;SDS011;17169;50.966;11.038;2022-08-24T10:29:25;6.72;;;3.00;;
30380;SDS011;17169;50.966;11.038;2022-08-24T10:32:44;4.90;;;2.20;;
30380;SDS011;17169;50.966;11.038;2022-08-24T10:43:33;4.93;;;2.65;;
30380;SDS011;17169;50.966;11.038;2022-08-24T10:46:57;6.18;;;2.45;;
30380;SDS011;17169;50.966;11.038;2022-08-24T10:50:14;12.77;;;2.55;;
30380;SDS011;17169;50.966;11.038;2022-08-24T10:53:28;6.53;;;2.70;;
30380;SDS011;17169;50.966;11.038;2022-08-24T10:56:35;6.22;;;2.42;;
30380;SDS011;17169;50.966;11.038;2022-08-24T10:59:44;5.78;;;2.40;;
30380;SDS011;17169;50.966;11.038;2022-08-24T11:03:04;6.65;;;2.30;;
30380;SDS011;17169;50.966;11.038;2022-08-24T11:06:12;5.50;;;2.15;;
30380;SDS011;17169;50.966;11.038;2022-08-24T11:09:16;3.92;;;2.28;;
30380;SDS011;17169;50.966;11.038;2022-08-24T11:12:26;7.57;;;2.20;;
30380;SDS011;17169;50.966;11.038;2022-08-24T11:15:30;11.07;;;2.35;;
30380;SDS011;17169;50.966;11.038;2022-08-24T11:18:46;6.43;;;2.20;;
30380;SDS011;17169;50.966;11.038;2022-08-24T11:21:54;6.82;;;2.50;;
30380;SDS011;17169;50.966;11.038;2022-08-24T11:24:59;4.90;;;2.10;;
30380;SDS011;17169;50.966;11.038;2022-08-24T11:28:04;4.68;;;2.05;;
30380;SDS011;17169;50.966;11.038;2022-08-24T11:31:18;5.25;;;2.38;;
30380;SDS011;17169;50.966;11.038;2022-08-24T11:34:33;9.13;;;2.30;;
30380;SDS011;17169;50.966;11.038;2022-08-24T11:37:39;6.82;;;2.65;;
30380;SDS011;17169;50.966;11.038;2022-08-24T11:40:42;5.55;;;2.53;;
30380;SDS011;17169;50.966;11.038;2022-08-24T11:43:52;4.32;;;2.00;;
30380;SDS011;17169;50.966;11.038;2022-08-24T11:47:04;7.60;;;2.40;;
30380;SDS011;17169;50.966;11.038;2022-08-24T11:50:28;6.03;;;1.98;;
30380;SDS011;17169;50.966;11.038;2022-08-24T11:53:37;3.70;;;2.00;;
30380;SDS011;17169;50.966;11.038;2022-08-24T11:56:45;8.13;;;2.10;;
30380;SDS011;17169;50.966;11.038;2022-08-24T11:59:58;7.95;;;2.25;;
30380;SDS011;17169;50.966;11.038;2022-08-24T12:03:08;6.78;;;2.30;;
30380;SDS011;17169;50.966;11.038;2022-08-24T12:06:31;7.20;;;1.92;;
30380;SDS011;17169;50.966;11.038;2022-08-24T12:09:45;4.75;;;2.10;;
30380;SDS011;17169;50.966;11.038;2022-08-24T12:13:02;5.38;;;2.05;;
30380;SDS011;17169;50.966;11.038;2022-08-24T12:16:11;6.82;;;2.47;;
30380;SDS011;17169;50.966;11.038;2022-08-24T12:19:23;4.63;;;1.95;;
30380;SDS011;17169;50.966;11.038;2022-08-24T12:22:30;3.75;;;2.17;;
30380;SDS011;17169;50.966;11.038;2022-08-24T12:25:33;5.03;;;1.93;;
30380;SDS011;17169;50.966;11.038;2022-08-24T12:28:54;8.65;;;2.15;;
30380;SDS011;17169;50.966;11.038;2022-08-24T12:32:03;5.10;;;2.03;;
30380;SDS011;17169;50.966;11.038;2022-08-24T12:35:11;4.40;;;2.17;;
30380;SDS011;17169;50.966;11.038;2022-08-24T12:38:23;4.88;;;1.90;;
30380;SDS011;17169;50.966;11.038;2022-08-24T12:41:29;10.50;;;2.35;;
30380;SDS011;17169;50.966;11.038;2022-08-24T12:44:37;5.13;;;2.22;;
30380;SDS011;17169;50.966;11.038;2022-08-24T12:47:47;5.70;;;1.85;;
30380;SDS011;17169;50.966;11.038;2022-08-24T12:50:58;7.43;;;2.03;;
30380;SDS011;17169;50.966;11.038;2022-08-24T12:54:16;6.93;;;2.05;;
30380;SDS011;17169;50.966;11.038;2022-08-24T12:57:52;3.80;;;1.90;;
30380;SDS011;17169;50.966;11.038;2022-08-24T13:01:05;12.80;;;2.22;;
30380;SDS011;17169;50.966;11.038;2022-08-24T13:04:13;7.27;;;2.10;;
30380;SDS011;17169;50.966;11.038;2022-08-24T13:07:25;5.85;;;1.90;;
30380;SDS011;17169;50.966;11.038;2022-08-24T13:10:36;8.10;;;2.45;;
30380;SDS011;17169;50.966;11.038;2022-08-24T13:13:45;4.38;;;2.05;;
30380;SDS011;17169;50.966;11.038;2022-08-24T13:17:09;6.88;;;2.65;;
30380;SDS011;17169;50.966;11.038;2022-08-24T13:20:16;6.78;;;2.03;;
30380;SDS011;17169;50.966;11.038;2022-08-24T13:23:23;10.32;;;1.98;;
30380;SDS011;17169;50.966;11.038;2022-08-24T13:26:28;5.40;;;1.97;;
30380;SDS011;17169;50.966;11.038;2022-08-24T13:29:32;7.60;;;2.00;;
30380;SDS011;17169;50.966;11.038;2022-08-24T13:32:35;4.38;;;2.20;;
30380;SDS011;17169;50.966;11.038;2022-08-24T13:35:58;5.45;;;1.80;;
30380;SDS011;17169;50.966;11.038;2022-08-24T13:39:10;4.00;;;2.15;;
30380;SDS011;17169;50.966;11.038;2022-08-24T13:42:37;4.00;;;1.92;;
30380;SDS011;17169;50.966;11.038;2022-08-24T13:46:12;5.63;;;1.80;;
30380;SDS011;17169;50.966;11.038;2022-08-24T13:52:45;5.78;;;2.13;;
30380;SDS011;17169;50.966;11.038;2022-08-24T13:56:10;9.63;;;2.50;;
30380;SDS011;17169;50.966;11.038;2022-08-24T14:06:53;8.15;;;2.42;;
30380;SDS011;17169;50.966;11.038;2022-08-24T14:10:06;4.97;;;1.90;;
30380;SDS011;17169;50.966;11.038;2022-08-24T14:13:19;5.72;;;1.80;;
30380;SDS011;17169;50.966;11.038;2022-08-24T14:16:42;4.90;;;1.87;;
30380;SDS011;17169;50.966;11.038;2022-08-24T14:20:16;3.90;;;1.98;;
30380;SDS011;17169;50.966;11.038;2022-08-24T14:23:47;6.20;;;1.80;;
30380;SDS011;17169;50.966;11.038;2022-08-24T14:27:09;6.20;;;2.30;;
30380;SDS011;17169;50.966;11.038;2022-08-24T14:30:42;5.18;;;2.10;;
30380;SDS011;17169;50.966;11.038;2022-08-24T14:33:52;6.05;;;1.75;;
30380;SDS011;17169;50.966;11.038;2022-08-24T14:37:04;8.20;;;2.10;;
30380;SDS011;17169;50.966;11.038;2022-08-24T14:40:19;4.97;;;2.08;;
30380;SDS011;17169;50.966;11.038;2022-08-24T14:43:30;4.10;;;2.50;;
30380;SDS011;17169;50.966;11.038;2022-08-24T14:46:43;3.95;;;2.00;;
30380;SDS011;17169;50.966;11.038;2022-08-24T14:49:57;3.63;;;2.13;;
30380;SDS011;17169;50.966;11.038;2022-08-24T14:53:14;4.93;;;2.15;;
30380;SDS011;17169;50.966;11.038;2022-08-24T14:56:39;5.93;;;2.28;;
30380;SDS011;17169;50.966;11.038;2022-08-24T14:59:53;4.68;;;1.80;;
30380;SDS011;17169;50.966;11.038;2022-08-24T15:03:11;3.88;;;2.08;;
30380;SDS011;17169;50.966;11.038;2022-08-24T15:06:25;5.40;;;2.42;;
30380;SDS011;17169;50.966;11.038;2022-08-24T15:09:35;3.28;;;2.45;;
30380;SDS011;17169;50.966;11.038;2022-08-24T15:12:40;4.95;;;2.50;;
30380;SDS011;17169;50.966;11.038;2022-08-24T15:15:48;9.20;;;2.60;;
30380;SDS011;17169;50.966;11.038;2022-08-24T15:18:59;4.60;;;2.40;;
30380;SDS011;17169;50.966;11.038;2022-08-24T15:22:07;7.97;;;2.80;;
30380;SDS011;17169;50.966;11.038;2022-08-24T15:25:18;8.48;;;3.00;;
30380;SDS011;17169;50.966;11.038;2022-08-24T15:28:31;3.58;;;2.33;;
30380;SDS011;17169;50.966;11.038;2022-08-24T15:31:35;7.65;;;2.65;;
30380;SDS011;17169;50.966;11.038;2022-08-24T15:34:39;7.05;;;2.75;;
30380;SDS011;17169;50.966;11.038;2022-08-24T15:37:45;5.05;;;2.85;;
30380;SDS011;17169;50.966;11.038;2022-08-24T15:43:56;7.47;;;2.85;;
30380;SDS011;17169;50.966;11.038;2022-08-24T15:47:02;3.83;;;2.85;;
30380;SDS011;17169;50.966;11.038;2022-08-24T15:50:18;6.28;;;3.08;;
30380;SDS011;17169;50.966;11.038;2022-08-24T15:53:33;5.13;;;2.65;;
30380;SDS011;17169;50.966;11.038;2022-08-24T15:56:40;6.53;;;2.40;;
30380;SDS011;17169;50.966;11.038;2022-08-24T15:59:48;3.90;;;2.53;;
30380;SDS011;17169;50.966;11.038;2022-08-24T16:02:51;8.40;;;2.80;;
30380;SDS011;17169;50.966;11.038;2022-08-24T16:05:54;4.35;;;2.28;;
30380;SDS011;17169;50.966;11.038;2022-08-24T16:08:58;6.32;;;2.53;;
30380;SDS011;17169;50.966;11.038;2022-08-24T16:12:05;5.00;;;2.13;;
30380;SDS011;17169;50.966;11.038;2022-08-24T16:15:13;7.43;;;2.67;;
30380;SDS011;17169;50.966;11.038;2022-08-24T16:18:18;7.45;;;2.38;;
30380;SDS011;17169;50.966;11.038;2022-08-24T16:21:23;3.47;;;2.17;;
30380;SDS011;17169;50.966;11.038;2022-08-24T16:24:31;7.53;;;2.90;;
30380;SDS011;17169;50.966;11.038;2022-08-24T16:27:53;5.57;;;2.25;;
30380;SDS011;17169;50.966;11.038;2022-08-24T16:30:59;7.43;;;2.10;;
30380;SDS011;17169;50.966;11.038;2022-08-24T16:34:07;7.63;;;2.08;;
30380;SDS011;17169;50.966;11.038;2022-08-24T16:37:17;6.05;;;1.95;;
30380;SDS011;17169;50.966;11.038;2022-08-24T16:40:20;6.18;;;2.05;;
30380;SDS011;17169;50.966;11.038;2022-08-24T16:43:24;2.63;;;1.65;;
30380;SDS011;17169;50.966;11.038;2022-08-24T16:46:27;12.90;;;2.30;;
30380;SDS011;17169;50.966;11.038;2022-08-24T16:49:30;6.85;;;2.08;;
30380;SDS011;17169;50.966;11.038;2022-08-24T16:52:33;5.75;;;2.13;;
30380;SDS011;17169;50.966;11.038;2022-08-24T16:55:35;6.57;;;2.17;;
30380;SDS011;17169;50.966;11.038;2022-08-24T16:58:40;5.18;;;2.08;;
30380;SDS011;17169;50.966;11.038;2022-08-24T17:01:42;5.18;;;2.13;;
30380;SDS011;17169;50.966;11.038;2022-08-24T17:04:45;4.75;;;2.17;;
30380;SDS011;17169;50.966;11.038;2022-08-24T17:07:48;6.60;;;2.50;;
30380;SDS011;17169;50.966;11.038;2022-08-24T17:10:51;13.63;;;2.40;;
30380;SDS011;17169;50.966;11.038;2022-08-24T17:13:56;5.97;;;2.40;;
30380;SDS011;17169;50.966;11.038;2022-08-24T17:16:58;9.17;;;2.50;;
30380;SDS011;17169;50.966;11.038;2022-08-24T17:20:02;8.52;;;2.30;;
30380;SDS011;17169;50.966;11.038;2022-08-24T17:23:06;12.13;;;2.30;;
30380;SDS011;17169;50.966;11.038;2022-08-24T17:26:09;6.28;;;2.70;;
30380;SDS011;17169;50.966;11.038;2022-08-24T17:29:15;5.78;;;2.40;;
30380;SDS011;17169;50.966;11.038;2022-08-24T17:32:20;6.53;;;2.70;;
30380;SDS011;17169;50.966;11.038;2022-08-24T17:35:22;4.88;;;2.30;;
30380;SDS011;17169;50.966;11.038;2022-08-24T17:38:25;6.78;;;2.95;;
30380;SDS011;17169;50.966;11.038;2022-08-24T17:41:29;7.37;;;2.10;;
30380;SDS011;17169;50.966;11.038;2022-08-24T17:44:33;5.18;;;2.53;;
30380;SDS011;17169;50.966;11.038;2022-08-24T17:47:36;8.43;;;2.55;;
30380;SDS011;17169;50.966;11.038;2022-08-24T17:50:39;7.65;;;2.60;;
30380;SDS011;17169;50.966;11.038;2022-08-24T17:53:41;6.25;;;2.50;;
30380;SDS011;17169;50.966;11.038;2022-08-24T17:56:44;7.38;;;2.40;;
30380;SDS011;17169;50.966;11.038;2022-08-24T17:59:51;7.88;;;2.72;;
30380;SDS011;17169;50.966;11.038;2022-08-24T18:02:54;5.90;;;2.45;;
30380;SDS011;17169;50.966;11.038;2022-08-24T18:05:56;5.70;;;2.72;;
30380;SDS011;17169;50.966;11.038;2022-08-24T18:08:59;6.60;;;2.85;;
30380;SDS011;17169;50.966;11.038;2022-08-24T18:12:06;6.97;;;2.33;;
30380;SDS011;17169;50.966;11.038;2022-08-24T18:15:11;7.20;;;2.38;;
30380;SDS011;17169;50.966;11.038;2022-08-24T18:18:13;8.02;;;2.65;;
30380;SDS011;17169;50.966;11.038;2022-08-24T18:21:16;13.23;;;2.78;;
30380;SDS011;17169;50.966;11.038;2022-08-24T18:24:19;6.35;;;2.70;;
30380;SDS011;17169;50.966;11.038;2022-08-24T18:27:23;11.73;;;2.85;;
30380;SDS011;17169;50.966;11.038;2022-08-24T18:30:29;11.13;;;3.00;;
30380;SDS011;17169;50.966;11.038;2022-08-24T18:33:32;6.72;;;2.50;;
30380;SDS011;17169;50.966;11.038;2022-08-24T18:36:35;16.00;;;3.15;;
30380;SDS011;17169;50.966;11.038;2022-08-24T18:39:37;10.05;;;3.25;;
30380;SDS011;17169;50.966;11.038;2022-08-24T18:42:40;10.63;;;3.15;;
30380;SDS011;17169;50.966;11.038;2022-08-24T18:45:44;5.93;;;3.00;;
30380;SDS011;17169;50.966;11.038;2022-08-24T18:48:46;8.55;;;3.00;;
30380;SDS011;17169;50.966;11.038;2022-08-24T18:51:49;8.90;;;2.72;;
30380;SDS011;17169;50.966;11.038;2022-08-24T18:54:51;5.18;;;2.80;;
30380;SDS011;17169;50.966;11.038;2022-08-24T18:57:54;8.60;;;2.88;;
30380;SDS011;17169;50.966;11.038;2022-08-24T19:00:59;5.95;;;3.20;;
30380;SDS011;17169;50.966;11.038;2022-08-24T19:04:01;7.97;;;2.90;;
30380;SDS011;17169;50.966;11.038;2022-08-24T19:07:05;11.02;;;3.28;;
30380;SDS011;17169;50.966;11.038;2022-08-24T19:10:08;8.45;;;2.55;;
30380;SDS011;17169;50.966;11.038;2022-08-24T19:13:13;11.23;;;4.00;;
30380;SDS011;17169;50.966;11.038;2022-08-24T19:16:19;13.23;;;3.53;;